Terminal Aerodrome Forecast
Issued by NWS

Home | Current Version | Previous Version | Text Only | Print | Product List | Glossary On
Versions: 1 2 3 4 5 6 7 8 9 10 11 12 13 14
000
FTUS46 KMFR 032342
TAFOTH
TAF
KOTH 032342Z 0400/0424 35010KT P6SM VCSH SCT015 OVC025
     FM040500 35008G15KT P6SM -SHRA OVC015
     FM041600 35015G22KT P6SM VCSH SCT015 OVC025
     FM042000 36022G28KT P6SM VCSH BKN025 OVC035=

USA.gov is the U.S. government's official web portal to all federal, state and local government web resources and services.